createdAt,value
2018-07-16T00:02:18.455Z,44.60
2018-07-16T00:07:21.887Z,45.40
2018-07-16T00:12:25.210Z,45.20
2018-07-16T00:17:28.494Z,44.90
2018-07-16T00:22:31.908Z,44.90
2018-07-16T00:32:38.121Z,44.70
2018-07-16T00:37:41.346Z,45.00
2018-07-16T00:42:44.542Z,45.00
2018-07-16T00:47:47.750Z,45.10
2018-07-16T00:52:50.959Z,45.10
2018-07-16T00:57:54.134Z,45.30
2018-07-16T01:02:57.381Z,45.00
2018-07-16T01:08:00.587Z,45.10
2018-07-16T01:13:03.798Z,45.30
2018-07-16T01:18:07.006Z,45.70
2018-07-16T01:23:10.217Z,45.90
2018-07-16T01:28:13.372Z,44.80
2018-07-16T01:33:16.636Z,45.20
2018-07-16T01:38:19.946Z,45.30
2018-07-16T01:43:23.155Z,45.80
2018-07-16T01:48:26.365Z,45.80
2018-07-16T01:53:29.527Z,45.50
2018-07-16T01:58:32.784Z,46.00
2018-07-16T02:03:35.935Z,45.50
2018-07-16T02:08:39.100Z,45.30
2018-07-16T02:13:42.352Z,45.60
2018-07-16T02:18:45.622Z,45.70
2018-07-16T02:23:48.833Z,45.40
2018-07-16T02:28:52.041Z,45.70
2018-07-16T02:33:55.253Z,46.40
2018-07-16T02:38:58.562Z,45.90
2018-07-16T02:44:01.775Z,45.70
2018-07-16T02:49:05.192Z,45.40
2018-07-16T02:54:08.498Z,45.70
2018-07-16T02:59:12.019Z,45.80
2018-07-16T03:04:15.224Z,45.70
2018-07-16T03:09:18.395Z,45.90
2018-07-16T03:14:21.808Z,45.30
2018-07-16T03:19:25.059Z,45.70
2018-07-16T03:24:28.270Z,45.80
2018-07-16T03:29:31.721Z,46.10
2018-07-16T03:34:34.889Z,45.90
2018-07-16T03:39:38.099Z,46.00
2018-07-16T03:44:41.411Z,45.90
2018-07-16T03:49:44.622Z,45.60
2018-07-16T03:54:47.836Z,45.40
2018-07-16T03:59:51.144Z,45.90
2018-07-16T04:04:54.351Z,46.00
2018-07-16T04:09:57.666Z,46.00
2018-07-16T04:15:00.871Z,45.70
2018-07-16T04:20:04.194Z,45.50
2018-07-16T04:25:07.496Z,46.10
2018-07-16T04:30:10.808Z,46.10
2018-07-16T04:35:14.123Z,45.50
2018-07-16T04:40:17.432Z,45.70
2018-07-16T04:45:20.744Z,46.10
2018-07-16T04:50:23.973Z,45.40
2018-07-16T04:55:27.264Z,46.60
2018-07-16T05:00:30.472Z,46.50
2018-07-16T05:05:33.787Z,46.40
2018-07-16T05:10:37.097Z,46.40
2018-07-16T05:15:40.409Z,46.40
2018-07-16T05:20:43.611Z,46.90
2018-07-16T05:25:46.930Z,46.50
2018-07-16T05:30:50.139Z,46.50
2018-07-16T05:35:53.452Z,47.00
2018-07-16T05:40:56.763Z,46.70
2018-07-16T05:46:00.075Z,46.90
2018-07-16T05:51:03.387Z,46.90
2018-07-16T05:56:06.699Z,46.10
2018-07-16T06:01:10.012Z,46.80
2018-07-16T06:06:14.026Z,47.70
2018-07-16T06:11:17.248Z,47.90
2018-07-16T06:16:20.666Z,47.30
2018-07-16T06:21:23.976Z,47.00
2018-07-16T06:26:27.291Z,47.10
2018-07-16T06:31:30.499Z,47.00
2018-07-16T06:36:33.708Z,47.00
2018-07-16T06:41:37.197Z,47.00
2018-07-16T06:46:40.126Z,47.60
2018-07-16T06:51:43.271Z,47.00
2018-07-16T06:56:46.432Z,46.40
2018-07-16T07:01:49.655Z,47.10
2018-07-16T07:06:52.864Z,46.70
2018-07-16T07:11:56.024Z,47.40
2018-07-16T07:16:59.386Z,47.30
2018-07-16T07:22:02.595Z,46.60
2018-07-16T07:27:05.806Z,46.70
2018-07-16T07:32:09.014Z,47.10
2018-07-16T07:37:12.224Z,46.80
2018-07-16T07:42:15.364Z,46.50
2018-07-16T07:47:18.746Z,46.70
2018-07-16T07:52:22.057Z,46.60
2018-07-16T07:57:25.370Z,46.80
2018-07-16T08:02:28.680Z,46.50
2018-07-16T08:07:31.890Z,46.90
2018-07-16T08:12:35.113Z,46.80
2018-07-16T08:17:38.346Z,47.10
2018-07-16T08:22:41.621Z,46.80
2018-07-16T08:27:44.932Z,47.30
2018-07-16T08:32:48.244Z,47.20
2018-07-16T08:37:51.555Z,47.10
2018-07-16T08:42:54.784Z,47.10
2018-07-16T08:47:58.077Z,47.10
2018-07-16T08:53:01.403Z,47.10
2018-07-16T08:58:04.704Z,47.00
2018-07-16T09:03:07.927Z,47.10
2018-07-16T09:08:11.227Z,47.40
2018-07-16T09:13:14.516Z,46.90
2018-07-16T09:18:17.661Z,46.60
2018-07-16T09:23:20.911Z,46.80
2018-07-16T09:28:24.173Z,46.50
2018-07-16T09:33:27.387Z,46.70
2018-07-16T09:38:30.609Z,47.30
2018-07-16T09:43:33.828Z,46.00
2018-07-16T09:48:37.028Z,46.70
2018-07-16T09:53:40.247Z,46.20
2018-07-16T10:03:47.910Z,46.00
2018-07-16T10:08:51.120Z,45.80
2018-07-16T10:13:54.343Z,45.60
2018-07-16T10:18:57.547Z,45.80
2018-07-16T10:24:00.782Z,46.10
2018-07-16T10:29:04.135Z,44.90
2018-07-16T10:39:10.358Z,44.80
2018-07-16T10:44:13.588Z,45.60
2018-07-16T10:49:16.798Z,45.10
2018-07-16T10:54:20.032Z,45.30
2018-07-16T10:59:23.239Z,45.00
2018-07-16T11:04:26.492Z,44.20
2018-07-16T11:09:29.675Z,44.90
2018-07-16T11:14:32.927Z,43.50
2018-07-16T11:19:36.082Z,44.20
2018-07-16T11:24:39.451Z,44.30
2018-07-16T11:29:42.604Z,44.70
2018-07-16T11:34:45.766Z,43.50
2018-07-16T11:39:48.911Z,44.10
2018-07-16T11:44:52.087Z,42.80
2018-07-16T11:49:55.244Z,43.40
2018-07-16T11:54:58.391Z,43.50
2018-07-16T12:00:01.538Z,42.50
2018-07-16T12:05:04.746Z,42.40
2018-07-16T12:10:07.955Z,42.80
2018-07-16T12:15:11.163Z,43.40
2018-07-16T12:20:14.375Z,42.30
2018-07-16T12:25:17.583Z,43.40
2018-07-16T12:30:20.806Z,41.60
2018-07-16T12:35:24.023Z,41.50
2018-07-16T12:40:27.236Z,43.30
2018-07-16T12:45:30.449Z,42.50
2018-07-16T12:50:33.663Z,42.50
2018-07-16T12:55:36.946Z,42.80
2018-07-16T13:00:40.099Z,42.80
2018-07-16T13:05:43.302Z,41.50
2018-07-16T13:10:46.476Z,42.20
2018-07-16T13:15:49.721Z,42.60
2018-07-16T13:20:52.804Z,41.10
2018-07-16T13:25:55.952Z,41.20
2018-07-16T13:30:59.144Z,41.50
2018-07-16T13:36:02.294Z,42.60
2018-07-16T13:41:05.479Z,41.10
2018-07-16T13:46:08.647Z,39.70
2018-07-16T13:51:11.799Z,39.10
2018-07-16T13:56:14.964Z,40.90
2018-07-16T14:01:18.114Z,41.30
2018-07-16T14:06:21.278Z,42.80
2018-07-16T14:11:24.442Z,41.90
2018-07-16T14:16:27.596Z,42.10
2018-07-16T14:21:30.750Z,41.60
2018-07-16T14:26:33.910Z,41.70
2018-07-16T14:31:37.058Z,39.70
2018-07-16T14:36:40.236Z,40.70
2018-07-16T14:41:43.388Z,38.30
2018-07-16T14:46:46.541Z,40.90
2018-07-16T14:51:49.694Z,40.90
2018-07-16T14:56:52.847Z,39.90
2018-07-16T15:01:55.994Z,38.80
2018-07-16T15:06:59.143Z,40.10
2018-07-16T15:12:02.315Z,39.00
2018-07-16T15:17:05.472Z,39.70
2018-07-16T15:22:08.624Z,38.80
2018-07-16T15:27:11.767Z,38.90
2018-07-16T15:32:15.019Z,38.70
2018-07-16T15:37:18.172Z,39.30
2018-07-16T15:42:21.356Z,40.70
2018-07-16T15:47:24.511Z,39.40
2018-07-16T15:52:27.660Z,38.20
2018-07-16T15:57:30.820Z,38.60
2018-07-16T16:02:33.967Z,37.90
2018-07-16T16:07:37.119Z,37.70
2018-07-16T16:12:40.348Z,37.20
2018-07-16T16:17:43.564Z,37.30
2018-07-16T16:22:46.776Z,36.60
2018-07-16T16:27:49.983Z,37.60
2018-07-16T16:32:53.233Z,38.30
2018-07-16T16:37:56.408Z,37.20
2018-07-16T16:42:59.631Z,36.90
2018-07-16T16:48:02.980Z,37.10
2018-07-16T16:53:06.212Z,38.10
2018-07-16T16:58:09.427Z,37.00
2018-07-16T17:03:12.635Z,37.20
2018-07-16T17:08:15.857Z,36.30
2018-07-16T17:13:19.138Z,35.90
2018-07-16T17:18:22.335Z,37.30
2018-07-16T17:23:25.575Z,37.90
2018-07-16T17:28:28.702Z,38.50
2018-07-16T17:33:31.970Z,38.70
2018-07-16T17:38:35.118Z,38.50
2018-07-16T17:43:38.267Z,39.00
2018-07-16T17:48:41.423Z,38.60
2018-07-16T17:53:44.571Z,38.40
2018-07-16T17:58:47.769Z,38.30
2018-07-16T18:03:50.888Z,39.20
2018-07-16T18:08:54.035Z,40.20
2018-07-16T18:13:57.259Z,39.20
2018-07-16T18:19:00.468Z,39.40
2018-07-16T18:24:03.680Z,39.30
2018-07-16T18:29:06.893Z,38.20
2018-07-16T18:34:10.103Z,39.20
2018-07-16T18:39:13.324Z,40.30
2018-07-16T18:44:16.531Z,40.00
2018-07-16T18:49:19.787Z,39.90
2018-07-16T18:54:23.035Z,40.00
2018-07-16T18:59:26.258Z,39.70
2018-07-16T19:04:29.460Z,39.70
2018-07-16T19:09:33.316Z,41.00
2018-07-16T19:14:36.571Z,40.40
2018-07-16T19:19:39.766Z,41.00
2018-07-16T19:24:43.242Z,41.60
2018-07-16T19:29:47.107Z,42.00
2018-07-16T19:34:51.422Z,42.20
2018-07-16T19:39:54.850Z,42.30
2018-07-16T19:44:58.544Z,42.40
2018-07-16T19:50:01.719Z,42.50
2018-07-16T19:55:05.322Z,42.80
2018-07-16T20:00:08.527Z,43.00
2018-07-16T20:05:11.740Z,42.90
2018-07-16T20:10:14.918Z,42.90
2018-07-16T20:15:18.993Z,42.80
2018-07-16T20:20:22.137Z,43.00
2018-07-16T20:25:25.268Z,42.60
2018-07-16T20:30:28.424Z,42.60
2018-07-16T20:35:31.589Z,42.40
2018-07-16T20:40:34.748Z,42.40
2018-07-16T20:45:37.999Z,42.40
2018-07-16T20:50:41.155Z,42.40
2018-07-16T20:55:44.303Z,42.30
2018-07-16T21:00:47.462Z,42.50
2018-07-16T21:05:50.635Z,42.50
2018-07-16T21:10:53.884Z,42.60
2018-07-16T21:15:57.110Z,42.70
2018-07-16T21:21:00.323Z,42.80
2018-07-16T21:26:03.538Z,42.80
2018-07-16T21:31:07.200Z,42.80
2018-07-16T21:36:10.423Z,43.00
2018-07-16T21:41:13.636Z,43.10
2018-07-16T21:46:16.811Z,43.10
2018-07-16T21:51:19.963Z,43.20
2018-07-16T21:56:23.111Z,43.20
2018-07-16T22:01:26.271Z,43.30
2018-07-16T22:06:29.423Z,43.40
2018-07-16T22:11:32.596Z,43.50
2018-07-16T22:16:35.756Z,43.50
2018-07-16T22:21:38.920Z,43.60
2018-07-16T22:26:42.075Z,43.70
2018-07-16T22:31:45.237Z,43.70
2018-07-16T22:36:48.391Z,43.70
2018-07-16T22:41:51.547Z,43.70
2018-07-16T22:46:54.703Z,43.90
2018-07-16T22:51:57.858Z,44.20
2018-07-16T22:57:01.017Z,44.00
2018-07-16T23:02:04.171Z,44.00
2018-07-16T23:07:07.695Z,44.10
2018-07-16T23:12:10.864Z,44.20
2018-07-16T23:17:14.015Z,44.20
2018-07-16T23:22:17.179Z,44.20
2018-07-16T23:27:20.333Z,44.30
2018-07-16T23:32:23.480Z,44.40
2018-07-16T23:37:26.644Z,44.40
2018-07-16T23:42:29.795Z,44.60
2018-07-16T23:47:32.947Z,44.60
2018-07-16T23:52:36.111Z,44.70
2018-07-16T23:57:39.263Z,44.70
